createdAt,value
2023-03-25T00:01:26.240Z,5.55
2023-03-25T00:03:53.709Z,5.53
2023-03-25T00:06:20.779Z,6.50
2023-03-25T00:08:47.712Z,5.07
2023-03-25T00:11:14.780Z,5.22
2023-03-25T00:13:46.490Z,6.80
2023-03-25T00:16:13.541Z,5.03
2023-03-25T00:18:40.551Z,5.63
2023-03-25T00:21:16.658Z,6.95
2023-03-25T00:23:43.741Z,7.60
2023-03-25T00:26:11.252Z,7.20
2023-03-25T00:28:38.808Z,6.53
2023-03-25T00:31:09.280Z,7.78
2023-03-25T00:33:36.287Z,7.40
2023-03-25T00:36:04.789Z,8.32
2023-03-25T00:38:35.419Z,7.75
2023-03-25T00:41:29.012Z,6.97
2023-03-25T00:44:00.868Z,9.50
2023-03-25T00:46:32.087Z,9.23
2023-03-25T00:49:00.294Z,9.52
2023-03-25T00:51:28.473Z,11.75
2023-03-25T00:54:00.388Z,9.98
2023-03-25T00:56:27.992Z,9.85
2023-03-25T00:58:55.806Z,10.25
2023-03-25T01:01:28.783Z,14.05
2023-03-25T01:04:01.959Z,12.57
2023-03-25T01:06:33.542Z,10.15
2023-03-25T01:09:03.070Z,9.70
2023-03-25T01:11:34.890Z,8.38
2023-03-25T01:14:02.960Z,7.55
2023-03-25T01:16:30.342Z,6.90
2023-03-25T01:18:57.610Z,8.88
2023-03-25T01:21:25.878Z,6.60
2023-03-25T01:23:52.865Z,7.05
2023-03-25T01:26:20.066Z,6.97
2023-03-25T01:28:47.112Z,7.45
2023-03-25T01:31:16.172Z,6.60
2023-03-25T01:33:43.333Z,5.45
2023-03-25T01:36:13.187Z,5.63
2023-03-25T01:38:41.161Z,5.20
2023-03-25T01:41:09.900Z,5.40
2023-03-25T01:43:37.094Z,5.68
2023-03-25T01:46:04.621Z,6.22
2023-03-25T01:48:41.907Z,5.60
2023-03-25T01:51:18.461Z,4.43
2023-03-25T01:53:45.933Z,6.10
2023-03-25T01:56:18.416Z,6.15
2023-03-25T01:58:46.641Z,5.57
2023-03-25T02:01:17.176Z,5.43
2023-03-25T02:03:46.697Z,4.95
2023-03-25T02:06:32.112Z,4.80
2023-03-25T02:09:02.295Z,5.50
2023-03-25T02:11:38.297Z,5.25
2023-03-25T02:14:09.236Z,5.22
2023-03-25T02:17:01.776Z,4.60
2023-03-25T02:20:09.428Z,4.75
2023-03-25T02:23:15.037Z,4.43
2023-03-25T02:26:14.428Z,4.85
2023-03-25T02:28:56.169Z,4.45
2023-03-25T02:31:43.167Z,5.22
2023-03-25T02:34:46.442Z,4.45
2023-03-25T02:38:01.439Z,5.50
2023-03-25T02:40:34.872Z,3.83
2023-03-25T02:43:06.482Z,4.40
2023-03-25T02:45:40.694Z,4.38
2023-03-25T02:48:21.650Z,4.47
2023-03-25T02:50:56.454Z,3.70
2023-03-25T02:56:02.398Z,3.70
2023-03-25T02:58:31.001Z,4.10
2023-03-25T03:00:59.147Z,3.78
2023-03-25T03:03:28.474Z,3.97
2023-03-25T03:06:03.917Z,3.40
2023-03-25T03:08:31.675Z,3.63
2023-03-25T03:11:13.711Z,3.38
2023-03-25T03:14:09.839Z,3.72
2023-03-25T03:16:58.545Z,3.83
2023-03-25T03:19:58.545Z,3.83
2023-03-25T03:22:43.604Z,3.45
2023-03-25T03:25:19.085Z,3.88
2023-03-25T03:27:51.999Z,3.90
2023-03-25T03:30:44.031Z,3.83
2023-03-25T03:33:41.120Z,3.83
2023-03-25T03:36:16.461Z,4.30
2023-03-25T03:38:51.233Z,4.00
2023-03-25T03:44:14.342Z,3.78
2023-03-25T03:46:54.821Z,3.75
2023-03-25T03:49:27.795Z,5.85
2023-03-25T03:52:08.999Z,3.60
2023-03-25T03:54:46.520Z,3.75
2023-03-25T03:57:28.001Z,3.38
2023-03-25T04:00:04.474Z,3.65
2023-03-25T04:02:42.067Z,3.50
2023-03-25T04:05:13.732Z,3.67
2023-03-25T04:07:46.768Z,3.28
2023-03-25T04:10:23.394Z,4.18
2023-03-25T04:12:56.000Z,3.42
2023-03-25T04:15:23.042Z,3.90
2023-03-25T04:17:50.366Z,3.40
2023-03-25T04:20:24.138Z,3.33
2023-03-25T04:22:52.597Z,3.50
2023-03-25T04:25:21.778Z,3.80
2023-03-25T04:27:49.406Z,32.22
2023-03-25T04:30:19.894Z,30.45
2023-03-25T04:32:47.817Z,62.00
2023-03-25T04:35:17.127Z,38.78
2023-03-25T04:37:54.588Z,22.42
2023-03-25T04:40:21.758Z,7.57
2023-03-25T04:42:48.922Z,7.90
2023-03-25T04:45:17.161Z,6.32
2023-03-25T04:47:49.205Z,6.13
2023-03-25T04:50:26.204Z,5.80
2023-03-25T04:52:54.722Z,6.03
2023-03-25T04:55:22.039Z,4.97
2023-03-25T04:57:51.664Z,8.27
2023-03-25T05:00:25.039Z,10.80
2023-03-25T05:02:54.926Z,3.88
2023-03-25T05:05:25.206Z,4.32
2023-03-25T05:07:58.449Z,4.95
2023-03-25T05:10:26.713Z,4.38
2023-03-25T05:13:04.909Z,4.90
2023-03-25T05:15:35.638Z,4.68
2023-03-25T05:18:02.763Z,8.35
2023-03-25T05:20:30.963Z,3.88
2023-03-25T05:22:58.417Z,5.75
2023-03-25T05:25:25.607Z,8.93
2023-03-25T05:27:52.582Z,4.93
2023-03-25T05:30:19.840Z,6.05
2023-03-25T05:32:50.832Z,4.95
2023-03-25T05:35:28.638Z,4.30
2023-03-25T05:37:56.276Z,3.90
2023-03-25T05:40:23.583Z,4.90
2023-03-25T05:42:50.753Z,6.53
2023-03-25T05:45:18.017Z,4.25
2023-03-25T05:47:45.039Z,4.95
2023-03-25T05:50:12.542Z,4.18
2023-03-25T05:52:41.756Z,3.88
2023-03-25T05:55:20.555Z,4.95
2023-03-25T05:57:48.271Z,4.72
2023-03-25T06:00:19.425Z,6.05
2023-03-25T06:02:48.882Z,3.67
2023-03-25T06:05:17.030Z,4.45
2023-03-25T06:07:47.626Z,3.47
2023-03-25T06:10:18.467Z,3.00
2023-03-25T06:12:47.141Z,3.40
2023-03-25T06:15:18.327Z,3.17
2023-03-25T06:17:47.422Z,5.38
2023-03-25T06:20:19.555Z,4.22
2023-03-25T06:22:47.004Z,2.70
2023-03-25T06:25:19.671Z,4.35
2023-03-25T06:27:51.362Z,2.50
2023-03-25T06:30:21.896Z,2.70
2023-03-25T06:32:50.953Z,2.60
2023-03-25T06:35:23.859Z,2.35
2023-03-25T06:37:50.855Z,1.73
2023-03-25T06:40:26.514Z,3.08
2023-03-25T06:42:53.760Z,2.70
2023-03-25T06:45:40.926Z,2.38
2023-03-25T06:48:21.393Z,2.00
2023-03-25T06:50:48.433Z,2.30
2023-03-25T06:53:15.591Z,2.58
2023-03-25T06:55:44.957Z,3.20
2023-03-25T06:58:12.153Z,2.40
2023-03-25T07:00:39.674Z,2.63
2023-03-25T07:03:06.745Z,2.40
2023-03-25T07:05:34.796Z,2.20
2023-03-25T07:08:01.948Z,2.13
2023-03-25T07:10:29.996Z,2.78
2023-03-25T07:12:57.127Z,2.20
2023-03-25T07:15:24.334Z,1.98
2023-03-25T07:17:51.325Z,2.05
2023-03-25T07:20:27.062Z,1.90
2023-03-25T07:22:55.509Z,2.20
2023-03-25T07:25:23.006Z,1.80
2023-03-25T07:27:50.351Z,2.15
2023-03-25T07:30:19.193Z,2.42
2023-03-25T07:32:46.389Z,1.92
2023-03-25T07:35:13.585Z,1.95
2023-03-25T07:37:40.781Z,1.90
2023-03-25T07:40:08.554Z,1.90
2023-03-25T07:42:38.662Z,1.63
2023-03-25T07:45:22.345Z,1.92
2023-03-25T07:47:53.386Z,1.67
2023-03-25T07:50:24.536Z,1.73
2023-03-25T07:52:58.141Z,2.13
2023-03-25T07:55:25.236Z,2.65
2023-03-25T07:57:52.276Z,1.70
2023-03-25T08:00:19.698Z,1.92
2023-03-25T08:02:46.731Z,2.33
2023-03-25T08:05:16.411Z,1.50
2023-03-25T08:07:43.396Z,3.45
2023-03-25T08:10:10.812Z,2.03
2023-03-25T08:12:37.881Z,2.40
2023-03-25T08:15:05.292Z,2.00
2023-03-25T08:17:32.419Z,2.00
2023-03-25T08:20:00.895Z,1.70
2023-03-25T08:22:28.089Z,2.22
2023-03-25T08:24:55.360Z,2.45
2023-03-25T08:27:22.444Z,1.77
2023-03-25T08:29:57.734Z,2.30
2023-03-25T08:32:26.510Z,1.98
2023-03-25T08:34:55.081Z,2.13
2023-03-25T08:37:22.532Z,1.67
2023-03-25T08:39:50.533Z,2.10
2023-03-25T08:42:18.169Z,2.03
2023-03-25T08:44:45.307Z,2.30
2023-03-25T08:47:12.347Z,2.42
2023-03-25T08:49:39.385Z,1.85
2023-03-25T08:52:08.860Z,2.42
2023-03-25T08:54:36.612Z,2.40
2023-03-25T08:57:03.860Z,2.42
2023-03-25T08:59:30.770Z,1.90
2023-03-25T09:01:59.432Z,1.88
2023-03-25T09:04:27.900Z,1.70
2023-03-25T09:07:11.464Z,2.33
2023-03-25T09:09:40.515Z,2.42
2023-03-25T09:12:07.977Z,1.73
2023-03-25T09:14:35.280Z,1.60
2023-03-25T09:17:02.582Z,2.30
2023-03-25T09:19:29.652Z,1.67
2023-03-25T09:21:56.596Z,2.00
2023-03-25T09:24:23.914Z,3.55
2023-03-25T09:26:51.038Z,5.10
2023-03-25T09:29:18.499Z,2.10
2023-03-25T09:31:45.568Z,2.20
2023-03-25T09:34:14.089Z,2.47
2023-03-25T09:36:42.925Z,1.75
2023-03-25T09:39:10.498Z,1.60
2023-03-25T09:41:52.309Z,1.77
2023-03-25T09:44:30.761Z,2.08
2023-03-25T09:47:02.300Z,2.35
2023-03-25T09:49:42.639Z,1.98
2023-03-25T09:52:21.639Z,2.05
2023-03-25T09:54:55.600Z,2.00
2023-03-25T09:57:29.275Z,1.80
2023-03-25T09:59:59.797Z,2.00
2023-03-25T10:02:43.198Z,1.67
2023-03-25T10:05:39.513Z,1.80
2023-03-25T10:08:26.616Z,2.25
2023-03-25T10:11:05.109Z,2.00
2023-03-25T10:13:32.184Z,1.70
2023-03-25T10:16:29.481Z,1.75
2023-03-25T10:19:02.476Z,1.58
2023-03-25T10:21:35.756Z,1.42
2023-03-25T10:24:29.095Z,1.40
2023-03-25T10:27:05.526Z,1.33
2023-03-25T10:29:39.480Z,1.85
2023-03-25T10:32:12.322Z,1.67
2023-03-25T10:34:46.946Z,1.23
2023-03-25T10:37:28.977Z,1.65
2023-03-25T10:40:08.548Z,9.48
2023-03-25T10:42:40.988Z,1.60
2023-03-25T10:45:16.566Z,1.33
2023-03-25T10:47:46.493Z,3.38
2023-03-25T10:50:17.933Z,2.03
2023-03-25T10:52:47.269Z,1.40
2023-03-25T10:55:32.923Z,2.03
2023-03-25T10:58:01.824Z,2.22
2023-03-25T11:00:30.629Z,1.30
2023-03-25T11:02:57.901Z,1.88
2023-03-25T11:05:28.638Z,1.55
2023-03-25T11:08:18.154Z,1.40
2023-03-25T11:10:51.377Z,1.70
2023-03-25T11:13:22.276Z,1.30
2023-03-25T11:15:52.736Z,1.40
2023-03-25T11:18:33.968Z,3.53
2023-03-25T11:21:11.687Z,1.38
2023-03-25T11:23:45.453Z,1.83
2023-03-25T11:26:24.556Z,1.40
2023-03-25T11:29:02.587Z,1.63
2023-03-25T11:31:35.377Z,1.52
2023-03-25T11:34:11.555Z,1.63
2023-03-25T11:36:55.258Z,1.40
2023-03-25T11:39:39.938Z,1.40
2023-03-25T11:42:19.686Z,1.40
2023-03-25T11:44:52.442Z,1.58
2023-03-25T11:47:38.219Z,1.50
2023-03-25T11:50:07.177Z,1.20
2023-03-25T11:52:45.890Z,1.60
2023-03-25T11:55:32.950Z,1.52
2023-03-25T11:58:02.261Z,2.35
2023-03-25T12:00:50.209Z,1.60
2023-03-25T12:03:23.260Z,1.65
2023-03-25T12:06:01.496Z,1.48
2023-03-25T12:08:43.877Z,1.52
2023-03-25T12:11:25.275Z,1.55
2023-03-25T12:14:11.176Z,2.05
2023-03-25T12:16:49.134Z,2.20
2023-03-25T12:19:31.372Z,1.88
2023-03-25T12:22:04.190Z,2.00
2023-03-25T12:24:50.982Z,2.13
2023-03-25T12:27:59.238Z,2.40
2023-03-25T12:31:11.552Z,7.85
2023-03-25T12:34:01.953Z,3.15
2023-03-25T12:36:28.848Z,3.05
2023-03-25T12:39:32.236Z,4.15
2023-03-25T12:42:33.888Z,3.33
2023-03-25T12:45:37.903Z,5.13
2023-03-25T12:48:23.341Z,4.25
2023-03-25T12:51:08.963Z,3.58
2023-03-25T12:53:41.426Z,3.30
2023-03-25T12:56:11.554Z,3.28
2023-03-25T12:59:07.130Z,3.97
2023-03-25T13:01:53.181Z,3.38
2023-03-25T13:04:39.563Z,6.63
2023-03-25T13:07:22.023Z,4.22
2023-03-25T13:10:10.770Z,2.92
2023-03-25T13:13:25.835Z,6.93
2023-03-25T13:16:18.795Z,3.60
2023-03-25T13:18:50.088Z,6.78
2023-03-25T13:21:21.918Z,2.40
2023-03-25T13:23:55.496Z,4.47
2023-03-25T13:26:26.394Z,4.75
2023-03-25T13:29:02.303Z,3.13
2023-03-25T13:31:42.437Z,3.53
2023-03-25T13:34:35.319Z,3.40
2023-03-25T13:37:04.903Z,3.78
2023-03-25T13:39:45.372Z,4.40
2023-03-25T13:42:29.450Z,4.55
2023-03-25T13:44:59.101Z,4.70
2023-03-25T13:47:33.183Z,4.80
2023-03-25T13:50:18.922Z,5.90
2023-03-25T13:52:51.741Z,5.82
2023-03-25T13:55:25.964Z,6.82
2023-03-25T13:58:09.285Z,5.10
2023-03-25T14:01:10.585Z,6.38
2023-03-25T14:03:56.125Z,5.18
2023-03-25T14:06:29.763Z,6.53
2023-03-25T14:09:34.437Z,3.70
2023-03-25T14:12:04.350Z,3.72
2023-03-25T14:14:36.594Z,3.35
2023-03-25T14:17:05.855Z,3.85
2023-03-25T14:19:38.525Z,5.63
2023-03-25T14:22:16.060Z,4.15
2023-03-25T14:24:45.115Z,3.42
2023-03-25T14:27:30.119Z,6.25
2023-03-25T14:30:15.822Z,4.32
2023-03-25T14:32:44.819Z,5.80
2023-03-25T14:35:41.431Z,4.63
2023-03-25T14:38:08.718Z,3.35
2023-03-25T14:41:02.051Z,4.20
2023-03-25T14:43:40.531Z,11.33
2023-03-25T14:46:13.477Z,4.40
2023-03-25T14:48:49.276Z,8.05
2023-03-25T14:51:23.360Z,5.25
2023-03-25T14:53:56.066Z,5.07
2023-03-25T14:56:31.804Z,5.13
2023-03-25T14:59:06.797Z,3.70
2023-03-25T15:01:37.135Z,3.58
2023-03-25T15:04:19.494Z,4.55
2023-03-25T15:06:49.300Z,4.80
2023-03-25T15:09:19.480Z,6.28
2023-03-25T15:12:05.361Z,4.10
2023-03-25T15:14:36.749Z,4.22
2023-03-25T15:17:11.351Z,4.35
2023-03-25T15:20:03.278Z,5.38
2023-03-25T15:22:30.705Z,3.97
2023-03-25T15:25:02.611Z,4.25
2023-03-25T15:27:40.269Z,4.25
2023-03-25T15:30:33.893Z,4.35
2023-03-25T15:33:17.681Z,4.30
2023-03-25T15:35:59.618Z,6.63
2023-03-25T15:39:01.630Z,4.28
2023-03-25T15:42:11.676Z,4.35
2023-03-25T15:44:53.289Z,7.82
2023-03-25T15:47:25.863Z,4.40
2023-03-25T15:50:35.731Z,4.07
2023-03-25T15:53:06.438Z,3.88
2023-03-25T15:56:12.357Z,4.57
2023-03-25T15:58:57.999Z,5.38
2023-03-25T16:01:29.551Z,4.03
2023-03-25T16:04:02.263Z,4.38
2023-03-25T16:06:31.726Z,5.32
2023-03-25T16:09:00.715Z,10.40
2023-03-25T16:11:28.854Z,5.82
2023-03-25T16:14:17.403Z,6.40
2023-03-25T16:16:56.880Z,4.30
2023-03-25T16:19:30.386Z,12.00
2023-03-25T16:22:02.572Z,5.05
2023-03-25T16:24:36.566Z,7.10
2023-03-25T16:27:13.447Z,5.43
2023-03-25T16:29:41.559Z,6.43
2023-03-25T16:32:19.432Z,6.07
2023-03-25T16:34:47.504Z,5.20
2023-03-25T16:37:16.361Z,5.20
2023-03-25T16:39:43.665Z,5.30
2023-03-25T16:42:19.551Z,7.47
2023-03-25T16:44:48.293Z,5.18
2023-03-25T16:47:16.242Z,6.63
2023-03-25T16:49:47.948Z,5.93
2023-03-25T16:52:24.218Z,6.88
2023-03-25T16:54:51.111Z,5.10
2023-03-25T16:57:25.949Z,6.60
2023-03-25T17:02:28.019Z,7.22
2023-03-25T17:05:11.822Z,7.80
2023-03-25T17:07:42.329Z,5.32
2023-03-25T17:10:49.662Z,4.95
2023-03-25T17:13:50.848Z,4.82
2023-03-25T17:16:22.174Z,4.90
2023-03-25T17:18:53.542Z,4.68
2023-03-25T17:21:27.348Z,4.97
2023-03-25T17:23:56.521Z,4.90
2023-03-25T17:26:26.693Z,5.43
2023-03-25T17:29:02.196Z,6.10
2023-03-25T17:31:34.879Z,6.10
2023-03-25T17:34:15.772Z,4.40
2023-03-25T17:36:47.968Z,5.57
2023-03-25T17:39:26.446Z,4.90
2023-03-25T17:42:18.585Z,6.57
2023-03-25T17:44:53.144Z,6.93
2023-03-25T17:47:21.417Z,6.07
2023-03-25T17:49:48.731Z,6.93
2023-03-25T17:52:15.651Z,4.40
2023-03-25T17:54:42.768Z,5.97
2023-03-25T17:57:21.959Z,4.63
2023-03-25T17:59:49.151Z,6.43
2023-03-25T18:02:17.716Z,4.97
2023-03-25T18:04:48.239Z,4.40
2023-03-25T18:07:15.668Z,4.88
2023-03-25T18:09:42.676Z,4.80
2023-03-25T18:12:11.499Z,5.10
2023-03-25T18:14:38.590Z,4.70
2023-03-25T18:17:06.051Z,5.93
2023-03-25T18:19:34.243Z,6.22
2023-03-25T18:22:09.858Z,4.10
2023-03-25T18:24:41.148Z,5.50
2023-03-25T18:27:11.133Z,6.65
2023-03-25T18:29:39.903Z,12.45
2023-03-25T18:32:07.131Z,12.10
2023-03-25T18:34:34.711Z,8.23
2023-03-25T18:37:02.345Z,7.85
2023-03-25T18:39:32.307Z,4.88
2023-03-25T18:41:59.341Z,5.00
2023-03-25T18:44:28.639Z,5.75
2023-03-25T18:46:56.899Z,3.72
2023-03-25T18:49:23.971Z,4.63
2023-03-25T18:51:51.456Z,4.80
2023-03-25T18:54:18.865Z,4.30
2023-03-25T18:56:46.033Z,4.55
2023-03-25T18:59:21.436Z,4.47
2023-03-25T19:01:48.518Z,4.35
2023-03-25T19:04:15.612Z,4.43
2023-03-25T19:06:43.114Z,4.20
2023-03-25T19:09:18.954Z,5.28
2023-03-25T19:11:47.300Z,5.35
2023-03-25T19:14:14.453Z,6.07
2023-03-25T19:19:23.190Z,6.03
2023-03-25T19:21:50.516Z,5.80
2023-03-25T19:24:17.619Z,4.60
2023-03-25T19:26:44.845Z,4.25
2023-03-25T19:29:11.996Z,4.97
2023-03-25T19:31:39.032Z,7.80
2023-03-25T19:34:08.332Z,7.32
2023-03-25T19:36:35.378Z,4.70
2023-03-25T19:39:06.114Z,4.70
2023-03-25T19:41:34.976Z,4.20
2023-03-25T19:44:02.202Z,5.15
2023-03-25T19:46:33.787Z,5.93
2023-03-25T19:49:01.339Z,6.55
2023-03-25T19:51:28.451Z,6.72
2023-03-25T19:53:55.496Z,9.02
2023-03-25T19:56:22.687Z,9.00
2023-03-25T19:58:49.814Z,6.47
2023-03-25T20:01:17.107Z,6.05
2023-03-25T20:03:44.389Z,4.65
2023-03-25T20:06:11.474Z,6.20
2023-03-25T20:08:41.279Z,5.15
2023-03-25T20:11:10.489Z,10.10
2023-03-25T20:13:37.932Z,7.07
2023-03-25T20:16:05.919Z,5.88
2023-03-25T20:18:32.947Z,6.13
2023-03-25T20:21:00.155Z,4.90
2023-03-25T20:23:27.218Z,4.75
2023-03-25T20:25:54.475Z,5.03
2023-03-25T20:28:22.955Z,5.25
2023-03-25T20:30:50.276Z,5.60
2023-03-25T20:33:17.670Z,4.47
2023-03-25T20:35:45.660Z,4.90
2023-03-25T20:38:14.476Z,8.27
2023-03-25T20:40:45.121Z,8.05
2023-03-25T20:43:14.577Z,8.48
2023-03-25T20:45:42.801Z,5.60
2023-03-25T20:48:09.879Z,11.85
2023-03-25T20:50:37.147Z,10.63
2023-03-25T20:53:04.616Z,4.68
2023-03-25T20:55:32.908Z,4.00
2023-03-25T20:58:00.126Z,5.00
2023-03-25T21:00:27.264Z,6.85
2023-03-25T21:02:54.732Z,4.95
2023-03-25T21:05:22.111Z,4.63
2023-03-25T21:07:49.414Z,5.05
2023-03-25T21:10:16.701Z,9.13
2023-03-25T21:12:45.013Z,4.75
2023-03-25T21:15:15.010Z,4.15
2023-03-25T21:17:42.790Z,10.02
2023-03-25T21:20:10.724Z,6.50
2023-03-25T21:22:44.925Z,11.15
2023-03-25T21:25:15.004Z,9.48
2023-03-25T21:27:42.687Z,5.53
2023-03-25T21:30:10.357Z,4.07
2023-03-25T21:32:41.187Z,9.20
2023-03-25T21:35:09.553Z,5.72
2023-03-25T21:37:40.658Z,4.22
2023-03-25T21:40:11.038Z,8.90
2023-03-25T21:42:42.476Z,5.07
2023-03-25T21:45:13.705Z,20.35
2023-03-25T21:47:41.731Z,6.32
2023-03-25T21:50:10.948Z,11.10
2023-03-25T21:52:43.238Z,7.57
2023-03-25T21:55:11.436Z,3.83
2023-03-25T21:57:39.782Z,6.20
2023-03-25T22:00:09.211Z,5.10
2023-03-25T22:02:38.996Z,9.40
2023-03-25T22:05:06.729Z,5.15
2023-03-25T22:07:33.692Z,4.97
2023-03-25T22:10:00.845Z,5.55
2023-03-25T22:12:27.808Z,6.45
2023-03-25T22:14:54.786Z,4.38
2023-03-25T22:17:21.878Z,4.32
2023-03-25T22:19:49.139Z,3.97
2023-03-25T22:22:19.306Z,4.05
2023-03-25T22:24:47.132Z,4.13
2023-03-25T22:27:14.336Z,3.30
2023-03-25T22:29:44.777Z,3.67
2023-03-25T22:32:11.888Z,3.00
2023-03-25T22:34:39.667Z,3.65
2023-03-25T22:37:07.142Z,3.17
2023-03-25T22:39:34.393Z,4.38
2023-03-25T22:42:01.622Z,2.20
2023-03-25T22:44:28.733Z,3.50
2023-03-25T22:46:56.624Z,3.38
2023-03-25T22:49:23.783Z,3.60
2023-03-25T22:51:51.336Z,3.45
2023-03-25T22:54:18.597Z,3.40
2023-03-25T22:56:46.281Z,4.20
2023-03-25T22:59:14.677Z,3.65
2023-03-25T23:01:42.777Z,2.83
2023-03-25T23:04:10.239Z,2.95
2023-03-25T23:06:37.504Z,2.53
2023-03-25T23:09:06.682Z,2.38
2023-03-25T23:11:35.787Z,2.58
2023-03-25T23:14:08.846Z,3.05
2023-03-25T23:16:39.021Z,3.40
2023-03-25T23:19:07.186Z,2.22
2023-03-25T23:21:34.729Z,3.05
2023-03-25T23:24:08.435Z,3.60
2023-03-25T23:26:39.249Z,3.10
2023-03-25T23:29:09.349Z,4.10
2023-03-25T23:31:38.048Z,3.25
2023-03-25T23:34:07.839Z,3.60
2023-03-25T23:36:37.113Z,3.80
2023-03-25T23:39:13.753Z,3.67
2023-03-25T23:41:41.387Z,5.15
2023-03-25T23:44:08.459Z,3.92
2023-03-25T23:46:35.775Z,4.28
2023-03-25T23:49:03.120Z,4.25
2023-03-25T23:51:37.002Z,3.33
2023-03-25T23:54:06.757Z,4.68
2023-03-25T23:56:33.844Z,3.47
2023-03-25T23:59:01.980Z,5.68
